createdAt,value
2019-04-11T00:02:06.710Z,100.00
2019-04-11T00:04:36.513Z,100.00
2019-04-11T00:07:06.205Z,100.00
2019-04-11T00:09:35.932Z,100.00
2019-04-11T00:12:08.917Z,100.00
2019-04-11T00:14:40.143Z,100.00
2019-04-11T00:17:09.966Z,100.00
2019-04-11T00:19:40.208Z,100.00
2019-04-11T00:22:13.459Z,100.00
2019-04-11T00:24:45.269Z,100.00
2019-04-11T00:27:15.178Z,100.00
2019-04-11T00:29:49.527Z,100.00
2019-04-11T00:32:22.507Z,100.00
2019-04-11T00:34:53.321Z,100.00
2019-04-11T00:37:23.195Z,100.00
2019-04-11T00:39:52.361Z,100.00
2019-04-11T00:42:23.156Z,100.00
2019-04-11T00:44:57.040Z,100.00
2019-04-11T00:47:27.690Z,100.00
2019-04-11T00:49:57.419Z,100.00
2019-04-11T00:52:28.042Z,100.00
2019-04-11T00:55:07.090Z,100.00
2019-04-11T00:57:41.171Z,100.00
2019-04-11T01:00:15.956Z,100.00
2019-04-11T01:02:45.566Z,100.00
2019-04-11T01:05:17.224Z,100.00
2019-04-11T01:07:47.541Z,100.00
2019-04-11T01:10:18.161Z,100.00
2019-04-11T01:12:49.779Z,100.00
2019-04-11T01:15:21.867Z,100.00
2019-04-11T01:17:52.245Z,100.00
2019-04-11T01:20:24.224Z,100.00
2019-04-11T01:22:57.061Z,100.00
2019-04-11T01:25:28.503Z,100.00
2019-04-11T01:28:00.472Z,100.00
2019-04-11T01:31:07.356Z,100.00
2019-04-11T01:33:42.183Z,100.00
2019-04-11T01:36:35.956Z,100.00
2019-04-11T01:39:45.453Z,100.00
2019-04-11T01:42:19.593Z,100.00
2019-04-11T01:44:52.682Z,100.00
2019-04-11T01:47:35.831Z,100.00
2019-04-11T01:50:05.903Z,100.00
2019-04-11T01:52:36.372Z,100.00
2019-04-11T01:55:10.729Z,100.00
2019-04-11T01:57:43.136Z,100.00
2019-04-11T02:00:24.721Z,100.00
2019-04-11T02:02:59.711Z,100.00
2019-04-11T02:05:32.776Z,100.00
2019-04-11T02:08:02.886Z,100.00
2019-04-11T02:10:37.041Z,100.00
2019-04-11T02:13:09.639Z,100.00
2019-04-11T02:15:40.813Z,100.00
2019-04-11T02:18:10.947Z,100.00
2019-04-11T02:20:40.945Z,100.00
2019-04-11T02:23:15.176Z,100.00
2019-04-11T02:26:20.884Z,100.00
2019-04-11T02:28:51.423Z,100.00
2019-04-11T02:31:22.838Z,100.00
2019-04-11T02:33:55.327Z,100.00
2019-04-11T02:36:29.098Z,100.00
2019-04-11T02:39:03.738Z,100.00
2019-04-11T02:41:30.366Z,100.00
2019-04-11T02:44:03.464Z,100.00
2019-04-11T02:46:48.326Z,100.00
2019-04-11T02:49:11.545Z,100.00
2019-04-11T02:51:42.831Z,100.00
2019-04-11T02:54:15.972Z,100.00
2019-04-11T02:57:06.316Z,100.00
2019-04-11T02:59:38.946Z,100.00
2019-04-11T03:02:11.041Z,100.00
2019-04-11T03:04:45.859Z,100.00
2019-04-11T03:07:16.857Z,100.00
2019-04-11T03:09:48.725Z,100.00
2019-04-11T03:12:21.537Z,100.00
2019-04-11T03:15:23.071Z,100.00
2019-04-11T03:17:34.112Z,100.00
2019-04-11T03:20:13.077Z,100.00
2019-04-11T03:22:32.238Z,100.00
2019-04-11T03:25:06.076Z,100.00
2019-04-11T03:27:37.689Z,100.00
2019-04-11T03:30:17.277Z,100.00
2019-04-11T03:33:51.747Z,100.00
2019-04-11T03:38:19.471Z,100.00
2019-04-11T03:40:47.002Z,100.00
2019-04-11T03:43:18.335Z,100.00
2019-04-11T03:45:52.548Z,100.00
2019-04-11T03:48:19.623Z,100.00
2019-04-11T03:50:39.474Z,100.00
2019-04-11T03:53:11.421Z,100.00
2019-04-11T03:55:43.337Z,100.00
2019-04-11T03:58:13.701Z,100.00
2019-04-11T04:00:46.872Z,100.00
2019-04-11T04:03:20.259Z,100.00
2019-04-11T04:05:54.911Z,100.00
2019-04-11T04:08:26.817Z,100.00
2019-04-11T04:11:17.351Z,100.00
2019-04-11T04:13:56.123Z,100.00
2019-04-11T04:16:56.458Z,100.00
2019-04-11T04:19:37.458Z,100.00
2019-04-11T04:22:32.270Z,100.00
2019-04-11T04:25:04.235Z,100.00
2019-04-11T04:27:35.255Z,100.00
2019-04-11T04:30:11.010Z,100.00
2019-04-11T04:32:44.949Z,100.00
2019-04-11T04:35:19.743Z,100.00
2019-04-11T04:37:51.701Z,100.00
2019-04-11T04:40:35.494Z,100.00
2019-04-11T04:42:58.420Z,100.00
2019-04-11T04:45:49.596Z,100.00
2019-04-11T04:48:11.148Z,100.00
2019-04-11T04:50:42.110Z,100.00
2019-04-11T04:53:13.764Z,100.00
2019-04-11T04:56:00.366Z,100.00
2019-04-11T04:58:39.828Z,100.00
2019-04-11T05:01:19.761Z,100.00
2019-04-11T05:03:51.086Z,100.00
2019-04-11T05:06:24.152Z,100.00
2019-04-11T05:08:58.182Z,100.00
2019-04-11T05:11:30.523Z,100.00
2019-04-11T05:14:03.100Z,100.00
2019-04-11T05:16:33.308Z,100.00
2019-04-11T05:19:14.970Z,100.00
2019-04-11T05:21:45.852Z,100.00
2019-04-11T05:24:16.685Z,100.00
2019-04-11T05:26:48.358Z,100.00
2019-04-11T05:29:19.634Z,100.00
2019-04-11T05:31:51.135Z,100.00
2019-04-11T05:34:41.455Z,100.00
2019-04-11T05:37:11.157Z,100.00
2019-04-11T05:39:43.029Z,100.00
2019-04-11T05:42:35.529Z,100.00
2019-04-11T05:45:08.518Z,100.00
2019-04-11T05:47:41.421Z,100.00
2019-04-11T05:50:34.059Z,100.00
2019-04-11T05:53:05.648Z,100.00
2019-04-11T05:55:42.124Z,100.00
2019-04-11T05:58:14.222Z,100.00
2019-04-11T06:01:11.215Z,100.00
2019-04-11T06:03:43.228Z,100.00
2019-04-11T06:06:26.812Z,100.00
2019-04-11T06:09:09.255Z,100.00
2019-04-11T06:12:09.495Z,100.00
2019-04-11T06:14:47.205Z,100.00
2019-04-11T06:17:21.783Z,100.00
2019-04-11T06:20:17.724Z,100.00
2019-04-11T06:23:04.979Z,100.00
2019-04-11T06:25:59.218Z,100.00
2019-04-11T06:28:32.122Z,100.00
2019-04-11T06:31:43.968Z,100.00
2019-04-11T06:34:15.546Z,100.00
2019-04-11T06:37:15.464Z,100.00
2019-04-11T06:39:54.546Z,100.00
2019-04-11T06:42:31.880Z,100.00
2019-04-11T06:45:31.437Z,100.00
2019-04-11T06:48:17.834Z,100.00
2019-04-11T06:51:14.059Z,100.00
2019-04-11T06:53:54.662Z,100.00
2019-04-11T06:56:38.663Z,100.00
2019-04-11T06:59:16.421Z,100.00
2019-04-11T07:01:47.586Z,100.00
2019-04-11T07:04:25.101Z,100.00
2019-04-11T07:06:55.859Z,100.00
2019-04-11T07:10:02.229Z,100.00
2019-04-11T07:12:35.431Z,100.00
2019-04-11T07:15:25.183Z,100.00
2019-04-11T07:18:14.007Z,100.00
2019-04-11T07:21:03.028Z,100.00
2019-04-11T07:23:51.415Z,100.00
2019-04-11T07:26:48.555Z,100.00
2019-04-11T07:29:44.296Z,100.00
2019-04-11T07:32:22.392Z,100.00
2019-04-11T07:35:13.407Z,100.00
2019-04-11T07:37:51.077Z,100.00
2019-04-11T07:40:56.917Z,100.00
2019-04-11T07:43:31.629Z,100.00
2019-04-11T07:46:40.748Z,100.00
2019-04-11T07:49:10.157Z,100.00
2019-04-11T07:51:48.526Z,100.00
2019-04-11T07:54:20.302Z,100.00
2019-04-11T07:56:58.687Z,100.00
2019-04-11T07:59:53.375Z,100.00
2019-04-11T08:02:43.319Z,100.00
2019-04-11T08:05:32.410Z,100.00
2019-04-11T08:08:47.343Z,100.00
2019-04-11T08:11:30.055Z,100.00
2019-04-11T08:14:16.244Z,100.00
2019-04-11T08:17:03.816Z,100.00
2019-04-11T08:19:53.169Z,100.00
2019-04-11T08:22:35.002Z,100.00
2019-04-11T08:25:27.149Z,97.81
2019-04-11T08:28:02.241Z,96.59
2019-04-11T08:30:48.940Z,98.24
2019-04-11T08:33:24.595Z,97.46
2019-04-11T08:36:22.248Z,93.88
2019-04-11T08:38:53.068Z,94.08
2019-04-11T08:42:09.395Z,91.64
2019-04-11T08:44:41.839Z,88.84
2019-04-11T08:47:13.715Z,87.96
2019-04-11T08:49:46.023Z,87.39
2019-04-11T08:52:27.895Z,86.67
2019-04-11T08:55:23.768Z,87.59
2019-04-11T08:58:00.308Z,86.59
2019-04-11T09:00:58.503Z,87.76
2019-04-11T09:03:59.808Z,85.61
2019-04-11T09:06:34.647Z,85.36
2019-04-11T09:09:20.906Z,85.27
2019-04-11T09:11:56.328Z,82.23
2019-04-11T09:14:44.804Z,82.45
2019-04-11T09:17:23.364Z,83.92
2019-04-11T09:20:10.118Z,83.21
2019-04-11T09:22:59.516Z,84.83
2019-04-11T09:25:50.431Z,82.75
2019-04-11T09:28:21.640Z,81.20
2019-04-11T09:31:10.656Z,81.60
2019-04-11T09:34:09.197Z,82.41
2019-04-11T09:36:53.405Z,82.11
2019-04-11T09:39:41.370Z,80.48
2019-04-11T09:42:38.825Z,76.54
2019-04-11T09:45:23.826Z,79.62
2019-04-11T09:48:14.918Z,79.41
2019-04-11T09:51:07.279Z,79.77
2019-04-11T09:53:38.745Z,77.50
2019-04-11T09:56:25.713Z,76.17
2019-04-11T09:59:00.540Z,77.28
2019-04-11T10:01:58.326Z,75.56
2019-04-11T10:04:31.946Z,78.36
2019-04-11T10:07:33.591Z,76.17
2019-04-11T10:10:21.128Z,74.33
2019-04-11T10:16:17.987Z,71.17
2019-04-11T10:19:00.713Z,69.11
2019-04-11T10:21:31.274Z,69.61
2019-04-11T10:24:20.620Z,70.99
2019-04-11T10:26:56.218Z,68.95
2019-04-11T10:29:44.086Z,68.62
2019-04-11T10:32:14.936Z,69.01
2019-04-11T10:35:06.049Z,69.85
2019-04-11T10:37:37.979Z,65.33
2019-04-11T10:40:36.466Z,67.21
2019-04-11T10:43:11.907Z,64.64
2019-04-11T10:46:00.823Z,62.53
2019-04-11T10:48:46.707Z,60.76
2019-04-11T10:51:35.901Z,59.30
2019-04-11T10:54:07.396Z,60.33
2019-04-11T10:57:03.452Z,60.10
2019-04-11T10:59:34.547Z,60.30
2019-04-11T11:02:23.001Z,60.92
2019-04-11T11:04:54.385Z,60.58
2019-04-11T11:07:28.683Z,58.66
2019-04-11T11:10:07.206Z,60.62
2019-04-11T11:12:57.212Z,57.73
2019-04-11T11:15:29.918Z,58.76
2019-04-11T11:19:07.528Z,59.23
2019-04-11T11:21:13.484Z,61.32
2019-04-11T11:24:05.382Z,55.05
2019-04-11T11:26:39.207Z,58.62
2019-04-11T11:29:47.493Z,56.31
2019-04-11T11:32:25.829Z,57.24
2019-04-11T11:35:27.347Z,58.25
2019-04-11T11:38:06.009Z,58.88
2019-04-11T11:40:56.448Z,59.12
2019-04-11T11:43:32.970Z,57.26
2019-04-11T11:46:34.163Z,53.01
2019-04-11T11:49:12.357Z,55.11
2019-04-11T11:52:06.739Z,60.59
2019-04-11T11:54:51.655Z,59.45
2019-04-11T11:57:39.219Z,58.79
2019-04-11T12:00:21.077Z,58.41
2019-04-11T12:03:27.719Z,56.25
2019-04-11T12:06:03.127Z,58.03
2019-04-11T12:09:09.957Z,57.02
2019-04-11T12:11:46.353Z,58.26
2019-04-11T12:14:43.417Z,54.92
2019-04-11T12:17:36.005Z,54.52
2019-04-11T12:20:12.956Z,50.57
2019-04-11T12:22:46.060Z,51.14
2019-04-11T12:25:27.764Z,51.40
2019-04-11T12:28:25.696Z,50.92
2019-04-11T12:31:03.295Z,53.12
2019-04-11T12:33:54.005Z,51.28
2019-04-11T12:36:26.830Z,53.67
2019-04-11T12:39:28.683Z,52.44
2019-04-11T12:42:22.241Z,52.72
2019-04-11T12:45:08.951Z,49.40
2019-04-11T12:47:44.913Z,52.03
2019-04-11T12:50:49.967Z,51.68
2019-04-11T12:53:26.371Z,52.83
2019-04-11T12:56:25.591Z,48.69
2019-04-11T12:59:09.679Z,49.64
2019-04-11T13:01:56.591Z,47.65
2019-04-11T13:04:34.545Z,46.01
2019-04-11T13:07:34.630Z,45.11
2019-04-11T13:10:20.064Z,45.67
2019-04-11T13:13:17.915Z,44.23
2019-04-11T13:16:17.702Z,44.74
2019-04-11T13:19:08.152Z,46.84
2019-04-11T13:22:03.811Z,48.77
2019-04-11T13:25:08.451Z,48.33
2019-04-11T13:27:44.657Z,49.43
2019-04-11T13:30:35.415Z,47.89
2019-04-11T13:33:10.340Z,44.91
2019-04-11T13:36:07.857Z,47.48
2019-04-11T13:38:40.922Z,46.38
2019-04-11T13:41:30.069Z,46.14
2019-04-11T13:44:15.318Z,44.30
2019-04-11T13:47:04.355Z,43.51
2019-04-11T13:49:46.009Z,41.94
2019-04-11T13:52:34.936Z,41.32
2019-04-11T13:55:30.869Z,40.71
2019-04-11T13:58:33.395Z,41.46
2019-04-11T14:01:10.473Z,42.64
2019-04-11T14:03:50.754Z,42.15
2019-04-11T14:06:36.005Z,40.40
2019-04-11T14:09:34.661Z,38.51
2019-04-11T14:12:09.497Z,38.44
2019-04-11T14:14:59.722Z,36.63
2019-04-11T14:17:42.478Z,36.07
2019-04-11T14:20:42.104Z,38.22
2019-04-11T14:23:35.647Z,38.78
2019-04-11T14:26:40.443Z,39.66
2019-04-11T14:29:36.969Z,37.21
2019-04-11T14:32:30.757Z,38.51
2019-04-11T14:35:23.507Z,39.17
2019-04-11T14:38:05.708Z,40.34
2019-04-11T14:41:13.818Z,39.13
2019-04-11T14:43:47.288Z,38.50
2019-04-11T14:46:37.298Z,37.65
2019-04-11T14:49:10.522Z,36.28
2019-04-11T14:52:02.340Z,36.64
2019-04-11T14:54:58.067Z,39.37
2019-04-11T14:57:56.705Z,38.58
2019-04-11T15:00:36.099Z,37.92
2019-04-11T15:03:24.671Z,38.37
2019-04-11T15:06:14.753Z,39.81
2019-04-11T15:09:24.855Z,38.73
2019-04-11T15:12:22.473Z,40.28
2019-04-11T15:15:22.631Z,39.42
2019-04-11T15:18:00.456Z,39.73
2019-04-11T15:20:55.904Z,40.13
2019-04-11T15:23:37.731Z,41.97
2019-04-11T15:27:06.571Z,40.40
2019-04-11T15:29:38.683Z,39.26
2019-04-11T15:32:20.727Z,40.07
2019-04-11T15:34:55.567Z,41.60
2019-04-11T15:37:46.883Z,41.31
2019-04-11T15:40:30.616Z,40.39
2019-04-11T15:43:31.940Z,40.21
2019-04-11T15:46:11.941Z,40.17
2019-04-11T15:49:02.681Z,41.57
2019-04-11T15:51:36.889Z,39.84
2019-04-11T15:54:32.431Z,40.32
2019-04-11T15:57:05.842Z,40.88
2019-04-11T15:59:54.833Z,40.27
2019-04-11T16:02:38.431Z,38.32
2019-04-11T16:05:31.541Z,37.58
2019-04-11T16:08:39.491Z,38.77
2019-04-11T16:11:25.018Z,38.73
2019-04-11T16:14:14.496Z,38.83
2019-04-11T16:17:07.323Z,39.22
2019-04-11T16:19:55.529Z,39.09
2019-04-11T16:22:43.314Z,37.75
2019-04-11T16:25:14.965Z,37.39
2019-04-11T16:28:07.155Z,36.96
2019-04-11T16:30:40.411Z,36.50
2019-04-11T16:33:31.136Z,36.20
2019-04-11T16:36:03.033Z,37.32
2019-04-11T16:38:50.416Z,37.69
2019-04-11T16:41:37.707Z,38.48
2019-04-11T16:44:10.025Z,38.78
2019-04-11T16:47:01.336Z,40.57
2019-04-11T16:49:31.721Z,39.96
2019-04-11T16:52:07.617Z,38.32
2019-04-11T16:54:40.664Z,38.99
2019-04-11T16:57:13.532Z,38.02
2019-04-11T16:59:40.999Z,38.00
2019-04-11T17:02:11.164Z,38.77
2019-04-11T17:04:40.623Z,38.61
2019-04-11T17:07:26.151Z,38.25
2019-04-11T17:09:57.510Z,38.09
2019-04-11T17:12:27.228Z,38.26
2019-04-11T17:14:56.450Z,38.77
2019-04-11T17:17:26.393Z,40.21
2019-04-11T17:19:55.940Z,41.17
2019-04-11T17:22:28.289Z,44.47
2019-04-11T17:24:57.584Z,49.49
2019-04-11T17:27:26.882Z,53.89
2019-04-11T17:29:56.718Z,55.19
2019-04-11T17:32:26.630Z,54.44
2019-04-11T17:34:56.382Z,53.88
2019-04-11T17:37:26.649Z,54.41
2019-04-11T17:39:58.531Z,54.40
2019-04-11T17:42:28.151Z,55.77
2019-04-11T17:44:58.521Z,56.58
2019-04-11T17:47:30.170Z,58.96
2019-04-11T17:50:04.328Z,61.58
2019-04-11T17:52:33.655Z,63.13
2019-04-11T17:55:06.884Z,64.67
2019-04-11T17:57:39.891Z,65.96
2019-04-11T18:00:20.571Z,67.34
2019-04-11T18:02:49.787Z,68.90
2019-04-11T18:05:19.833Z,72.91
2019-04-11T18:07:51.668Z,72.64
2019-04-11T18:10:25.557Z,73.06
2019-04-11T18:12:55.764Z,73.59
2019-04-11T18:15:23.902Z,75.52
2019-04-11T18:17:53.839Z,76.35
2019-04-11T18:20:23.413Z,78.89
2019-04-11T18:22:53.431Z,78.54
2019-04-11T18:25:24.718Z,79.79
2019-04-11T18:27:55.313Z,81.41
2019-04-11T18:30:25.685Z,80.91
2019-04-11T18:32:59.047Z,81.00
2019-04-11T18:35:31.712Z,81.46
2019-04-11T18:38:01.987Z,82.13
2019-04-11T18:40:30.901Z,83.40
2019-04-11T18:43:01.102Z,84.01
2019-04-11T18:45:30.489Z,85.87
2019-04-11T18:48:00.515Z,85.34
2019-04-11T18:50:32.749Z,86.14
2019-04-11T18:53:03.057Z,87.63
2019-04-11T18:55:35.420Z,88.38
2019-04-11T18:58:05.177Z,89.41
2019-04-11T19:00:35.779Z,89.24
2019-04-11T19:03:08.144Z,90.44
2019-04-11T19:05:42.789Z,90.35
2019-04-11T19:08:13.673Z,91.99
2019-04-11T19:10:46.465Z,91.53
2019-04-11T19:13:20.338Z,91.80
2019-04-11T19:15:51.568Z,92.55
2019-04-11T19:18:23.899Z,92.72
2019-04-11T19:20:54.244Z,92.54
2019-04-11T19:23:27.067Z,91.94
2019-04-11T19:26:00.132Z,92.19
2019-04-11T19:28:29.931Z,91.25
2019-04-11T19:30:59.381Z,91.94
2019-04-11T19:33:34.257Z,92.86
2019-04-11T19:36:04.134Z,91.81
2019-04-11T19:38:35.466Z,91.52
2019-04-11T19:41:05.557Z,92.70
2019-04-11T19:43:40.653Z,92.59
2019-04-11T19:46:10.988Z,92.89
2019-04-11T19:48:43.265Z,93.76
2019-04-11T19:51:12.555Z,93.08
2019-04-11T19:53:43.481Z,92.49
2019-04-11T19:56:27.133Z,94.08
2019-04-11T19:58:57.218Z,93.83
2019-04-11T20:01:26.643Z,93.96
2019-04-11T20:03:55.974Z,93.77
2019-04-11T20:06:29.285Z,94.34
2019-04-11T20:09:00.480Z,93.92
2019-04-11T20:11:32.606Z,93.71
2019-04-11T20:14:07.954Z,93.72
2019-04-11T20:16:42.753Z,93.93
2019-04-11T20:19:10.527Z,93.61
2019-04-11T20:21:39.748Z,94.40
2019-04-11T20:24:08.965Z,93.76
2019-04-11T20:26:41.984Z,93.63
2019-04-11T20:29:11.523Z,93.20
2019-04-11T20:31:44.007Z,93.58
2019-04-11T20:34:13.411Z,93.39
2019-04-11T20:36:46.605Z,93.74
2019-04-11T20:39:18.325Z,94.14
2019-04-11T20:41:53.277Z,94.04
2019-04-11T20:44:20.338Z,94.53
2019-04-11T20:46:50.147Z,94.05
2019-04-11T20:49:19.417Z,94.08
2019-04-11T20:51:48.667Z,93.36
2019-04-11T20:54:18.138Z,93.27
2019-04-11T20:56:47.579Z,94.76
2019-04-11T20:59:17.493Z,94.14
2019-04-11T21:01:47.553Z,94.45
2019-04-11T21:04:17.228Z,94.94
2019-04-11T21:06:50.101Z,96.41
2019-04-11T21:09:19.387Z,96.02
2019-04-11T21:11:50.609Z,96.55
2019-04-11T21:14:21.700Z,97.86
2019-04-11T21:16:51.770Z,97.55
2019-04-11T21:19:23.239Z,97.86
2019-04-11T21:21:54.410Z,97.29
2019-04-11T21:24:24.288Z,98.38
2019-04-11T21:26:56.885Z,98.12
2019-04-11T21:29:30.028Z,99.97
2019-04-11T21:32:02.601Z,100.00
2019-04-11T21:34:32.936Z,100.00
2019-04-11T21:37:02.728Z,100.00
2019-04-11T21:39:32.929Z,100.00
2019-04-11T21:42:05.924Z,100.00
2019-04-11T21:44:35.944Z,100.00
2019-04-11T21:47:07.338Z,100.00
2019-04-11T21:49:37.137Z,100.00
2019-04-11T21:52:12.071Z,100.00
2019-04-11T21:54:45.109Z,100.00
2019-04-11T21:57:18.450Z,100.00
2019-04-11T21:59:51.531Z,100.00
2019-04-11T22:02:24.081Z,100.00
2019-04-11T22:04:58.507Z,100.00
2019-04-11T22:07:30.807Z,100.00
2019-04-11T22:10:06.934Z,100.00
2019-04-11T22:12:34.664Z,100.00
2019-04-11T22:15:05.205Z,100.00
2019-04-11T22:17:37.042Z,100.00
2019-04-11T22:20:14.059Z,100.00
2019-04-11T22:22:42.734Z,100.00
2019-04-11T22:25:13.299Z,100.00
2019-04-11T22:27:42.774Z,100.00
2019-04-11T22:30:15.123Z,100.00
2019-04-11T22:32:47.770Z,100.00
2019-04-11T22:35:18.151Z,100.00
2019-04-11T22:37:47.342Z,100.00
2019-04-11T22:40:17.300Z,100.00
2019-04-11T22:42:46.750Z,100.00
2019-04-11T22:45:16.184Z,100.00
2019-04-11T22:47:45.354Z,100.00
2019-04-11T22:50:14.991Z,100.00
2019-04-11T22:52:45.869Z,100.00
2019-04-11T22:55:20.098Z,100.00
2019-04-11T22:57:49.432Z,100.00
2019-04-11T23:00:19.750Z,100.00
2019-04-11T23:03:16.673Z,100.00
2019-04-11T23:05:46.966Z,100.00
2019-04-11T23:08:19.349Z,100.00
2019-04-11T23:10:49.489Z,100.00
2019-04-11T23:13:19.109Z,100.00
2019-04-11T23:15:48.329Z,100.00
2019-04-11T23:18:18.222Z,100.00
2019-04-11T23:20:47.534Z,100.00
2019-04-11T23:23:18.180Z,100.00
2019-04-11T23:25:47.547Z,100.00
2019-04-11T23:28:16.690Z,100.00
2019-04-11T23:30:49.372Z,100.00
2019-04-11T23:33:18.950Z,100.00
2019-04-11T23:35:51.168Z,100.00
2019-04-11T23:38:23.555Z,100.00
2019-04-11T23:40:51.215Z,100.00
2019-04-11T23:43:21.885Z,100.00
2019-04-11T23:45:53.681Z,100.00
2019-04-11T23:48:24.065Z,100.00
2019-04-11T23:50:56.876Z,100.00
2019-04-11T23:53:29.156Z,100.00
2019-04-11T23:56:00.196Z,100.00
2019-04-11T23:58:32.617Z,100.00
